Time;durP1;ratioP1;P1;durP2;ratioP2;P2;SDS_P1;SDS_P2;PMS_P1;PMS_P2;Temp;Humidity;BMP_temperature;BMP_pressure;BME280_temperature;BME280_humidity;BME280_pressure;Samples;Min_cycle;Max_cycle;Signal;HPM_P1;HPM_P2
2024/02/02 00:00:43;;;;;;;;;;;2.00;99.90;;;;;;5048739;28;19983;-59
2024/02/02 00:03:10;;;;;;;;;;;2.00;99.90;;;;;;5057597;28;19929;-58
2024/02/02 00:05:37;;;;;;;;;;;2.00;99.90;;;;;;5053075;28;19939;-57
2024/02/02 00:08:04;;;;;;;;;;;2.00;99.90;;;;;;5051301;28;20458;-63
2024/02/02 00:10:31;;;;;;;;;;;2.00;99.90;;;;;;5051113;28;19935;-59
2024/02/02 00:12:58;;;;;;;;;;;2.00;99.90;;;;;;5054285;28;19931;-58
2024/02/02 00:15:25;;;;;;;;;;;2.00;99.90;;;;;;5047612;28;19963;-61
2024/02/02 00:17:51;;;;;;;;;;;2.00;99.90;;;;;;5054028;28;20474;-59
2024/02/02 00:20:19;;;;;;;;;;;2.00;99.90;;;;;;5054887;28;20340;-58
2024/02/02 00:22:46;;;;;;;;;;;1.90;99.90;;;;;;5055543;28;19935;-63
2024/02/02 00:25:12;;;;;;;;;;;2.00;99.90;;;;;;5050535;28;19963;-59
2024/02/02 00:27:39;;;;;;;;;;;2.00;99.90;;;;;;5053229;28;19925;-61
2024/02/02 00:30:06;;;;;;;;;;;2.00;99.90;;;;;;5050721;28;19928;-61
2024/02/02 00:32:33;;;;;;;;;;;2.00;99.90;;;;;;5053669;28;20034;-59
2024/02/02 00:35:00;;;;;;;;;;;2.00;99.90;;;;;;5053275;28;19924;-59
2024/02/02 00:37:27;;;;;;;;;;;1.90;99.90;;;;;;5054080;28;19971;-64
2024/02/02 00:39:54;;;;;;;;;;;1.90;99.90;;;;;;5050442;28;20018;-60
2024/02/02 00:42:21;;;;;;;;;;;1.90;99.90;;;;;;5053579;28;19970;-60
2024/02/02 00:44:48;;;;;;;;;;;1.90;99.90;;;;;;5050211;28;19929;-62
2024/02/02 00:47:15;;;;;;;;;;;1.90;99.90;;;;;;5054080;28;20043;-63
2024/02/02 00:49:42;;;;;;;;;;;1.90;99.90;;;;;;5054970;28;19975;-59
2024/02/02 00:52:09;;;;;;;;;;;1.90;99.90;;;;;;5057581;28;19925;-59
2024/02/02 00:54:35;;;;;;;;;;;2.00;99.90;;;;;;5059687;28;20839;-61
2024/02/02 00:57:02;;;;;;;;;;;2.00;99.90;;;;;;5055192;28;20514;-62
2024/02/02 00:59:29;;;;;;;;;;;2.00;99.90;;;;;;5057496;28;19977;-62
2024/02/02 01:01:56;;;;;;;;;;;2.10;99.90;;;;;;5053009;28;20018;-58
2024/02/02 01:04:23;;;;;;;;;;;2.10;99.90;;;;;;5054409;28;19932;-60
2024/02/02 01:06:50;;;;;;;;;;;2.10;99.90;;;;;;5055567;28;19924;-58
2024/02/02 01:09:17;;;;;;;;;;;2.10;99.90;;;;;;5054345;28;19951;-59
2024/02/02 01:11:44;;;;;;;;;;;2.10;99.90;;;;;;5053972;28;19978;-59
2024/02/02 01:14:10;;;;;;;;;;;2.10;99.90;;;;;;5054164;28;20363;-58
2024/02/02 01:16:37;;;;;;;;;;;2.10;99.90;;;;;;5055667;28;19928;-57
2024/02/02 01:19:04;;;;;;;;;;;2.10;99.90;;;;;;5054798;28;20371;-59
2024/02/02 01:21:33;;;;;;;;;;;2.10;99.90;;;;;;5050112;28;19925;-58
2024/02/02 01:24:00;;;;;;;;;;;2.10;99.90;;;;;;5051193;28;19960;-58
2024/02/02 01:26:27;;;;;;;;;;;2.10;99.90;;;;;;5054408;28;19970;-58
2024/02/02 01:28:54;;;;;;;;;;;2.10;99.90;;;;;;5050227;28;19928;-62
2024/02/02 01:31:21;;;;;;;;;;;2.10;99.90;;;;;;5053105;28;19932;-65
2024/02/02 01:33:47;;;;;;;;;;;2.10;99.90;;;;;;5048215;28;19929;-59
2024/02/02 01:36:15;;;;;;;;;;;2.10;99.90;;;;;;5051675;28;20286;-62
2024/02/02 01:38:42;;;;;;;;;;;2.10;99.90;;;;;;5052825;28;20367;-60
2024/02/02 01:41:09;;;;;;;;;;;2.10;99.90;;;;;;5046719;28;20549;-57
2024/02/02 01:43:36;;;;;;;;;;;2.10;99.90;;;;;;5052495;28;20027;-61
2024/02/02 01:46:02;;;;;;;;;;;2.10;99.90;;;;;;5049479;28;19925;-59
2024/02/02 01:48:29;;;;;;;;;;;2.10;99.90;;;;;;5057102;28;19934;-62
2024/02/02 01:50:56;;;;;;;;;;;2.10;99.90;;;;;;5060606;28;19943;-58
2024/02/02 01:53:23;;;;;;;;;;;2.10;99.90;;;;;;5056852;28;19924;-58
2024/02/02 01:55:50;;;;;;;;;;;2.10;99.90;;;;;;5053917;28;20362;-57
2024/02/02 01:58:17;;;;;;;;;;;2.10;99.90;;;;;;5051480;28;19963;-58
2024/02/02 02:00:44;;;;;;;;;;;2.10;99.90;;;;;;5049202;28;19987;-61
2024/02/02 02:03:11;;;;;;;;;;;2.10;99.90;;;;;;5055561;28;19932;-58
2024/02/02 02:05:39;;;;;;;;;;;2.10;99.90;;;;;;5051435;28;20013;-59
2024/02/02 02:08:06;;;;;;;;;;;2.10;99.90;;;;;;5050230;28;19986;-62
2024/02/02 02:10:33;;;;;;;;;;;2.20;99.90;;;;;;5050878;28;19928;-65
2024/02/02 02:13:00;;;;;;;;;;;2.20;99.90;;;;;;5058518;28;19964;-59
2024/02/02 02:15:27;;;;;;;;;;;2.20;99.90;;;;;;5053567;28;19929;-58
2024/02/02 02:17:54;;;;;;;;;;;2.20;99.90;;;;;;5055371;28;19931;-61
2024/02/02 02:20:22;;;;;;;;;;;2.20;99.90;;;;;;5055221;28;19932;-59
2024/02/02 02:22:49;;;;;;;;;;;2.20;99.90;;;;;;5054692;28;20023;-61
2024/02/02 02:25:16;;;;;;;;;;;2.20;99.90;;;;;;5050113;28;20383;-60
2024/02/02 02:27:44;;;;;;;;;;;2.20;99.90;;;;;;5055880;28;19964;-58
2024/02/02 02:30:11;;;;;;;;;;;2.20;99.90;;;;;;5057563;28;19982;-58
2024/02/02 02:32:38;;;;;;;;;;;2.20;99.90;;;;;;5051212;28;19928;-58
2024/02/02 02:35:05;;;;;;;;;;;2.10;99.90;;;;;;5055729;28;20676;-62
2024/02/02 02:37:33;;;;;;;;;;;2.10;99.90;;;;;;5057901;28;19967;-58
2024/02/02 02:39:59;;;;;;;;;;;2.10;99.90;;;;;;5055443;28;19931;-60
2024/02/02 02:42:26;;;;;;;;;;;2.10;99.90;;;;;;5051512;28;19935;-63
2024/02/02 02:44:53;;;;;;;;;;;2.10;99.90;;;;;;5051278;28;19941;-65
2024/02/02 02:47:20;;;;;;;;;;;2.00;99.90;;;;;;5058337;28;19933;-57
2024/02/02 02:49:47;;;;;;;;;;;2.00;99.90;;;;;;5053032;28;19935;-62
2024/02/02 02:52:14;;;;;;;;;;;1.90;99.90;;;;;;5057606;28;20005;-61
2024/02/02 02:54:41;;;;;;;;;;;1.90;99.90;;;;;;5050736;28;20019;-58
2024/02/02 02:57:08;;;;;;;;;;;1.90;99.90;;;;;;5051829;28;19928;-66
2024/02/02 02:59:35;;;;;;;;;;;1.90;99.90;;;;;;5052120;28;20387;-64
2024/02/02 03:02:02;;;;;;;;;;;1.90;99.90;;;;;;5051717;28;20104;-58
2024/02/02 03:04:29;;;;;;;;;;;1.80;99.90;;;;;;5050110;28;19955;-68
2024/02/02 03:06:56;;;;;;;;;;;1.80;99.90;;;;;;5050465;28;20398;-60
2024/02/02 03:09:23;;;;;;;;;;;1.80;99.90;;;;;;5050797;28;19928;-60
2024/02/02 03:11:50;;;;;;;;;;;1.80;99.90;;;;;;5049827;28;19997;-61
2024/02/02 03:14:17;;;;;;;;;;;1.80;99.90;;;;;;5052367;28;19929;-59
2024/02/02 03:16:44;;;;;;;;;;;1.80;99.90;;;;;;5046070;28;20705;-61
2024/02/02 03:19:11;;;;;;;;;;;1.70;99.90;;;;;;5040630;28;20336;-61
2024/02/02 03:21:38;;;;;;;;;;;1.70;99.90;;;;;;5049407;28;19928;-60
2024/02/02 03:24:06;;;;;;;;;;;1.70;99.90;;;;;;5051578;28;20017;-62
2024/02/02 03:26:33;;;;;;;;;;;1.70;99.90;;;;;;5049588;28;19925;-65
2024/02/02 03:29:00;;;;;;;;;;;1.70;99.90;;;;;;5050093;28;19931;-59
2024/02/02 03:31:27;;;;;;;;;;;1.60;99.90;;;;;;5051314;28;19925;-64
2024/02/02 03:33:54;;;;;;;;;;;1.60;99.90;;;;;;5052438;28;20383;-60
2024/02/02 03:36:21;;;;;;;;;;;1.60;99.90;;;;;;5046841;28;19932;-58
2024/02/02 03:38:48;;;;;;;;;;;1.60;99.90;;;;;;5054883;28;19951;-62
2024/02/02 03:41:15;;;;;;;;;;;1.60;99.90;;;;;;5048685;28;19937;-67
2024/02/02 03:43:41;;;;;;;;;;;1.60;99.90;;;;;;5050129;28;19932;-60
2024/02/02 03:46:08;;;;;;;;;;;1.60;99.90;;;;;;5053400;28;19932;-59
2024/02/02 03:48:35;;;;;;;;;;;1.60;99.90;;;;;;5050712;28;20034;-63
2024/02/02 03:51:02;;;;;;;;;;;1.60;99.90;;;;;;5054246;28;19955;-58
2024/02/02 03:53:29;;;;;;;;;;;1.60;99.90;;;;;;5055912;28;20028;-59
2024/02/02 03:55:56;;;;;;;;;;;1.60;99.90;;;;;;5049674;28;19968;-67
2024/02/02 03:58:22;;;;;;;;;;;1.60;99.90;;;;;;5059446;28;20669;-59
2024/02/02 04:00:49;;;;;;;;;;;1.60;99.90;;;;;;5055711;28;20448;-60
2024/02/02 04:03:16;;;;;;;;;;;1.60;99.90;;;;;;5053250;28;19929;-64
2024/02/02 04:05:43;;;;;;;;;;;1.60;99.90;;;;;;5051246;28;19932;-65
2024/02/02 04:08:10;;;;;;;;;;;1.60;99.90;;;;;;5056697;28;19933;-58
2024/02/02 04:10:37;;;;;;;;;;;1.60;99.90;;;;;;5051619;28;20019;-61
2024/02/02 04:13:04;;;;;;;;;;;1.60;99.90;;;;;;5058076;28;19925;-59
2024/02/02 04:15:31;;;;;;;;;;;1.60;99.90;;;;;;5056775;28;19928;-58
2024/02/02 04:17:59;;;;;;;;;;;1.60;99.90;;;;;;5051669;28;19929;-67
2024/02/02 04:20:26;;;;;;;;;;;1.50;99.90;;;;;;5049180;28;19979;-66
2024/02/02 04:22:53;;;;;;;;;;;1.50;99.90;;;;;;5055992;28;19928;-58
2024/02/02 04:25:20;;;;;;;;;;;1.50;99.90;;;;;;5056067;28;20077;-59
2024/02/02 04:27:47;;;;;;;;;;;1.50;99.90;;;;;;5058457;28;20668;-62
2024/02/02 04:30:13;;;;;;;;;;;1.50;99.90;;;;;;5059814;28;19931;-60
2024/02/02 04:32:41;;;;;;;;;;;1.50;99.90;;;;;;5055007;28;20333;-59
2024/02/02 04:35:08;;;;;;;;;;;1.50;99.90;;;;;;5054895;28;19933;-61
2024/02/02 04:37:34;;;;;;;;;;;1.50;99.90;;;;;;5056657;28;19991;-58
2024/02/02 04:40:01;;;;;;;;;;;1.50;99.90;;;;;;5053634;28;19929;-58
2024/02/02 04:42:28;;;;;;;;;;;1.50;99.90;;;;;;5056157;28;19947;-64
2024/02/02 04:44:55;;;;;;;;;;;1.40;99.90;;;;;;5047065;28;19930;-65
2024/02/02 04:47:22;;;;;;;;;;;1.40;99.90;;;;;;5056620;28;20422;-58
2024/02/02 04:49:49;;;;;;;;;;;1.50;99.90;;;;;;5053458;28;19925;-58
2024/02/02 04:52:16;;;;;;;;;;;1.50;99.90;;;;;;5052824;28;19929;-59
2024/02/02 04:54:43;;;;;;;;;;;1.50;99.90;;;;;;5051989;28;20087;-62
2024/02/02 04:57:10;;;;;;;;;;;1.50;99.90;;;;;;5055864;28;20491;-58
2024/02/02 04:59:37;;;;;;;;;;;1.50;99.90;;;;;;5053606;28;19929;-66
2024/02/02 05:02:04;;;;;;;;;;;1.50;99.90;;;;;;5053590;28;20255;-59
2024/02/02 05:04:32;;;;;;;;;;;1.50;99.90;;;;;;5054959;28;19950;-62
2024/02/02 05:06:59;;;;;;;;;;;1.60;99.90;;;;;;5057457;28;20019;-65
2024/02/02 05:09:26;;;;;;;;;;;1.50;99.90;;;;;;5055445;28;19928;-58
2024/02/02 05:11:53;;;;;;;;;;;1.50;99.90;;;;;;5054962;28;19929;-58
2024/02/02 05:14:20;;;;;;;;;;;1.50;99.90;;;;;;5055317;28;19932;-58
2024/02/02 05:16:47;;;;;;;;;;;1.50;99.90;;;;;;5048866;28;19929;-62
2024/02/02 05:19:14;;;;;;;;;;;1.50;99.90;;;;;;5054686;28;19929;-63
2024/02/02 05:21:41;;;;;;;;;;;1.50;99.90;;;;;;5059391;28;19935;-58
2024/02/02 05:24:08;;;;;;;;;;;1.40;99.90;;;;;;5050766;28;20451;-60
2024/02/02 05:26:55;;;;;;;;;;;1.40;99.90;;;;;;5049304;28;19936;-58
2024/02/02 05:29:22;;;;;;;;;;;1.40;99.90;;;;;;5060384;28;19967;-58
2024/02/02 05:31:49;;;;;;;;;;;1.40;99.90;;;;;;5051657;28;19951;-66
2024/02/02 05:34:15;;;;;;;;;;;1.50;99.90;;;;;;5053877;28;19924;-63
2024/02/02 05:36:42;;;;;;;;;;;1.40;99.90;;;;;;5054490;28;20009;-59
2024/02/02 05:39:09;;;;;;;;;;;1.40;99.90;;;;;;5052999;28;19932;-59
2024/02/02 05:41:36;;;;;;;;;;;1.40;99.90;;;;;;5048345;28;20450;-60
2024/02/02 05:44:03;;;;;;;;;;;1.50;99.90;;;;;;5058854;28;19928;-59
2024/02/02 05:46:30;;;;;;;;;;;1.50;99.90;;;;;;5048257;28;19948;-58
2024/02/02 05:48:58;;;;;;;;;;;1.50;99.90;;;;;;5049261;28;20006;-60
2024/02/02 05:51:25;;;;;;;;;;;1.50;99.90;;;;;;5052785;28;19925;-61
2024/02/02 05:53:52;;;;;;;;;;;1.50;99.90;;;;;;5053362;28;19932;-58
2024/02/02 05:56:20;;;;;;;;;;;1.50;99.90;;;;;;5049512;28;19931;-59
2024/02/02 05:58:47;;;;;;;;;;;1.50;99.90;;;;;;5052139;28;19935;-60
2024/02/02 06:01:14;;;;;;;;;;;1.50;99.90;;;;;;5048808;28;19925;-62
2024/02/02 06:03:41;;;;;;;;;;;1.50;99.90;;;;;;5059306;28;19929;-68
2024/02/02 06:06:08;;;;;;;;;;;1.50;99.90;;;;;;5049610;28;19928;-64
2024/02/02 06:08:34;;;;;;;;;;;1.50;99.90;;;;;;5051324;28;19929;-60
2024/02/02 06:11:03;;;;;;;;;;;1.50;99.90;;;;;;5052161;28;19951;-58
2024/02/02 06:13:30;;;;;;;;;;;1.50;99.90;;;;;;5055017;28;19968;-59
2024/02/02 06:15:57;;;;;;;;;;;1.50;99.90;;;;;;5050679;28;19925;-62
2024/02/02 06:18:24;;;;;;;;;;;1.60;99.90;;;;;;4989493;28;1835977;-58
2024/02/02 06:20:51;;;;;;;;;;;1.50;99.90;;;;;;5051187;28;19939;-65
2024/02/02 06:23:17;;;;;;;;;;;1.50;99.90;;;;;;5054231;28;20059;-61
2024/02/02 06:25:44;;;;;;;;;;;1.50;99.90;;;;;;5049082;28;19932;-57
2024/02/02 06:28:13;;;;;;;;;;;1.50;99.90;;;;;;5050436;28;20382;-63
2024/02/02 06:30:41;;;;;;;;;;;1.50;99.90;;;;;;5047535;28;19929;-58
2024/02/02 06:33:11;;;;;;;;;;;1.50;99.90;;;;;;5055039;28;19936;-61
2024/02/02 06:35:38;;;;;;;;;;;1.50;99.90;;;;;;5051034;28;19928;-59
2024/02/02 06:38:05;;;;;;;;;;;1.50;99.90;;;;;;5050244;28;19931;-59
2024/02/02 06:40:32;;;;;;;;;;;1.50;99.90;;;;;;5048112;28;20297;-60
2024/02/02 06:42:58;;;;;;;;;;;1.50;99.90;;;;;;5054337;28;19931;-66
2024/02/02 06:45:27;;;;;;;;;;;1.50;99.90;;;;;;5053426;28;19960;-64
2024/02/02 06:47:53;;;;;;;;;;;1.50;99.90;;;;;;5048568;28;20023;-63
2024/02/02 06:50:20;;;;;;;;;;;1.60;99.90;;;;;;5053318;28;20019;-58
2024/02/02 06:52:47;;;;;;;;;;;1.50;99.90;;;;;;5044865;28;19964;-61
2024/02/02 06:55:14;;;;;;;;;;;1.60;99.90;;;;;;5051968;28;20284;-67
2024/02/02 06:57:42;;;;;;;;;;;1.60;99.90;;;;;;5046698;28;19925;-60
2024/02/02 07:00:11;;;;;;;;;;;1.60;99.90;;;;;;5048054;28;19928;-60
2024/02/02 07:02:38;;;;;;;;;;;1.60;99.90;;;;;;5051292;28;19968;-62
2024/02/02 07:05:05;;;;;;;;;;;1.60;99.90;;;;;;5049693;28;19938;-61
2024/02/02 07:07:32;;;;;;;;;;;1.60;99.90;;;;;;5048751;28;19928;-58
2024/02/02 07:09:59;;;;;;;;;;;1.60;99.90;;;;;;5047710;28;20428;-60
2024/02/02 07:12:49;;;;;;;;;;;1.60;99.90;;;;;;5054177;28;19929;-61
2024/02/02 07:15:22;;;;;;;;;;;1.60;99.90;;;;;;5041975;28;19941;-66
2024/02/02 07:17:50;;;;;;;;;;;1.60;99.90;;;;;;5056817;28;19924;-67
2024/02/02 07:20:22;;;;;;;;;;;1.60;99.90;;;;;;5048946;28;19925;-62
2024/02/02 07:22:53;;;;;;;;;;;1.60;99.90;;;;;;5058484;28;20353;-61
2024/02/02 07:25:20;;;;;;;;;;;1.60;99.90;;;;;;5046914;28;20322;-59
2024/02/02 07:28:04;;;;;;;;;;;1.60;99.90;;;;;;5055460;28;19950;-59
2024/02/02 07:30:43;;;;;;;;;;;1.60;99.90;;;;;;5050536;28;19935;-63
2024/02/02 07:33:29;;;;;;;;;;;1.60;99.90;;;;;;5050784;28;19928;-69
2024/02/02 07:35:59;;;;;;;;;;;1.60;99.90;;;;;;5046962;28;19929;-61
2024/02/02 07:38:29;;;;;;;;;;;1.60;99.90;;;;;;5045590;28;19936;-60
2024/02/02 07:40:58;;;;;;;;;;;1.60;99.90;;;;;;5053634;28;19936;-65
2024/02/02 07:43:24;;;;;;;;;;;1.60;99.90;;;;;;5050765;28;20356;-61
2024/02/02 07:45:51;;;;;;;;;;;1.60;99.90;;;;;;5035010;28;19991;-59
2024/02/02 07:48:19;;;;;;;;;;;1.60;99.90;;;;;;5051281;28;20033;-65
2024/02/02 07:50:46;;;;;;;;;;;1.60;99.90;;;;;;5052194;28;19964;-60
2024/02/02 07:53:13;;;;;;;;;;;1.60;99.90;;;;;;5052816;28;20006;-61
2024/02/02 07:55:40;;;;;;;;;;;1.70;99.90;;;;;;5053234;28;19936;-62
2024/02/02 07:58:06;;;;;;;;;;;1.70;99.90;;;;;;5057845;28;20009;-59
2024/02/02 08:00:33;;;;;;;;;;;1.70;99.90;;;;;;5048562;28;20364;-62
2024/02/02 08:03:01;;;;;;;;;;;1.70;99.90;;;;;;5052103;28;20128;-65
2024/02/02 08:05:28;;;;;;;;;;;1.80;99.90;;;;;;5051302;28;20437;-64
2024/02/02 08:07:55;;;;;;;;;;;1.80;99.90;;;;;;5052265;28;20366;-66
2024/02/02 08:10:22;;;;;;;;;;;1.80;99.90;;;;;;5049962;28;19925;-60
2024/02/02 08:12:49;;;;;;;;;;;1.80;99.90;;;;;;5050810;28;19929;-61
2024/02/02 08:15:15;;;;;;;;;;;1.90;99.90;;;;;;5046515;28;19936;-69
2024/02/02 08:17:42;;;;;;;;;;;1.90;99.90;;;;;;5052026;28;19931;-63
2024/02/02 08:20:09;;;;;;;;;;;1.90;99.90;;;;;;5056270;28;19929;-61
2024/02/02 08:22:36;;;;;;;;;;;1.90;99.90;;;;;;5069537;28;20009;-61
2024/02/02 08:25:03;;;;;;;;;;;1.90;99.90;;;;;;5052812;28;20010;-62
2024/02/02 08:27:30;;;;;;;;;;;1.90;99.90;;;;;;5050307;28;20024;-61
2024/02/02 08:29:57;;;;;;;;;;;2.00;99.90;;;;;;5048425;28;19960;-59
2024/02/02 08:32:24;;;;;;;;;;;2.00;99.90;;;;;;5051723;28;20366;-59
2024/02/02 08:34:51;;;;;;;;;;;2.00;99.90;;;;;;5048700;28;19928;-65
2024/02/02 08:37:18;;;;;;;;;;;2.00;99.90;;;;;;5049273;28;20019;-65
2024/02/02 08:39:44;;;;;;;;;;;2.00;99.90;;;;;;5046808;28;19924;-66
2024/02/02 08:42:19;;;;;;;;;;;2.10;99.90;;;;;;5021401;28;20472;-59
2024/02/02 08:44:46;;;;;;;;;;;2.10;99.90;;;;;;5046589;28;21143;-66
2024/02/02 08:47:13;;;;;;;;;;;2.10;99.90;;;;;;5046064;28;20005;-62
2024/02/02 08:49:55;;;;;;;;;;;2.10;99.90;;;;;;5042954;28;19925;-60
2024/02/02 08:52:26;;;;;;;;;;;2.10;99.90;;;;;;5046678;28;19943;-59
2024/02/02 08:54:53;;;;;;;;;;;2.20;99.90;;;;;;5052216;28;19931;-59
2024/02/02 08:57:30;;;;;;;;;;;2.20;99.90;;;;;;5048815;28;19924;-61
2024/02/02 09:00:04;;;;;;;;;;;2.20;99.90;;;;;;5053059;28;19971;-59
2024/02/02 09:02:51;;;;;;;;;;;2.30;99.90;;;;;;5044361;28;20027;-60
2024/02/02 09:05:19;;;;;;;;;;;2.30;99.90;;;;;;5046583;28;20645;-62
2024/02/02 09:08:01;;;;;;;;;;;2.30;99.90;;;;;;5050081;28;19936;-59
2024/02/02 09:10:28;;;;;;;;;;;2.30;99.90;;;;;;5049879;28;19929;-68
2024/02/02 09:13:00;;;;;;;;;;;2.30;99.90;;;;;;5051551;28;19935;-61
2024/02/02 09:15:27;;;;;;;;;;;2.30;99.90;;;;;;5052943;28;20345;-64
2024/02/02 09:17:54;;;;;;;;;;;2.30;99.90;;;;;;5054383;28;20002;-59
2024/02/02 09:20:37;;;;;;;;;;;2.40;99.90;;;;;;5050635;28;19925;-59
2024/02/02 09:23:05;;;;;;;;;;;2.40;99.90;;;;;;5055436;28;19964;-61
2024/02/02 09:25:36;;;;;;;;;;;2.40;99.90;;;;;;5052390;28;19982;-60
2024/02/02 09:28:03;;;;;;;;;;;2.40;99.90;;;;;;5057983;28;19936;-60
2024/02/02 09:30:30;;;;;;;;;;;2.40;99.90;;;;;;5053140;28;19990;-61
2024/02/02 09:32:57;;;;;;;;;;;2.40;99.90;;;;;;5055338;28;19929;-62
2024/02/02 09:35:33;;;;;;;;;;;2.40;99.90;;;;;;5053927;28;20035;-58
2024/02/02 09:38:00;;;;;;;;;;;2.50;99.90;;;;;;5055661;28;19925;-61
2024/02/02 09:40:39;;;;;;;;;;;2.50;99.90;;;;;;5057070;28;19981;-65
2024/02/02 09:43:10;;;;;;;;;;;2.40;99.90;;;;;;5053233;28;19925;-59
2024/02/02 09:45:54;;;;;;;;;;;2.50;99.90;;;;;;5049125;28;19932;-59
2024/02/02 09:48:27;;;;;;;;;;;2.40;99.90;;;;;;5055883;28;20417;-60
2024/02/02 09:51:01;;;;;;;;;;;2.50;99.90;;;;;;5052324;28;19935;-59
2024/02/02 09:53:28;;;;;;;;;;;2.50;99.90;;;;;;5049433;28;20367;-61
2024/02/02 09:56:07;;;;;;;;;;;2.50;99.90;;;;;;5054206;28;19964;-62
2024/02/02 09:58:49;;;;;;;;;;;2.50;99.90;;;;;;5054654;28;19970;-60
2024/02/02 10:01:34;;;;;;;;;;;2.50;99.90;;;;;;5049260;28;19925;-60
2024/02/02 10:04:19;;;;;;;;;;;2.60;99.90;;;;;;5048558;28;19924;-63
2024/02/02 10:06:53;;;;;;;;;;;2.60;99.90;;;;;;5051236;28;19932;-62
2024/02/02 10:09:20;;;;;;;;;;;2.70;99.90;;;;;;5051987;28;20305;-59
2024/02/02 10:11:49;;;;;;;;;;;2.70;99.90;;;;;;5049645;28;20023;-60
2024/02/02 10:14:25;;;;;;;;;;;2.80;99.90;;;;;;5048953;28;19936;-60
2024/02/02 10:16:52;;;;;;;;;;;2.90;99.90;;;;;;5048368;28;19928;-59
2024/02/02 10:19:18;;;;;;;;;;;2.90;99.90;;;;;;5048677;28;19971;-63
2024/02/02 10:21:49;;;;;;;;;;;3.00;99.90;;;;;;5049600;28;19986;-63
2024/02/02 10:24:35;;;;;;;;;;;3.10;99.90;;;;;;5048551;28;20031;-60
2024/02/02 10:27:08;;;;;;;;;;;3.10;99.90;;;;;;5048355;28;19935;-60
2024/02/02 10:29:35;;;;;;;;;;;3.20;99.90;;;;;;5044076;28;20892;-65
2024/02/02 10:32:25;;;;;;;;;;;3.30;99.90;;;;;;5045052;28;20412;-60
2024/02/02 10:35:04;;;;;;;;;;;3.30;99.90;;;;;;5051016;28;20734;-63
2024/02/02 10:37:31;;;;;;;;;;;3.30;99.90;;;;;;5052875;28;20047;-63
2024/02/02 10:39:57;;;;;;;;;;;3.40;99.90;;;;;;5048146;28;19936;-60
2024/02/02 10:42:33;;;;;;;;;;;3.40;99.90;;;;;;5049351;28;19925;-59
2024/02/02 10:45:12;;;;;;;;;;;3.50;99.90;;;;;;5050724;28;20378;-60
2024/02/02 10:47:47;;;;;;;;;;;3.50;99.90;;;;;;5047566;28;20023;-59
2024/02/02 10:50:20;;;;;;;;;;;3.60;99.90;;;;;;5053517;28;19932;-62
2024/02/02 10:53:11;;;;;;;;;;;3.70;99.90;;;;;;5051607;28;19933;-62
2024/02/02 10:56:07;;;;;;;;;;;3.70;99.90;;;;;;5053097;28;19966;-62
2024/02/02 10:58:53;;;;;;;;;;;3.80;99.90;;;;;;5052117;28;19968;-58
2024/02/02 11:01:27;;;;;;;;;;;3.80;99.90;;;;;;5045930;28;20034;-59
2024/02/02 11:03:54;;;;;;;;;;;3.90;99.90;;;;;;5052758;28;19925;-59
2024/02/02 11:06:30;;;;;;;;;;;3.90;99.90;;;;;;5054376;28;19929;-57
2024/02/02 11:09:06;;;;;;;;;;;3.90;99.90;;;;;;5052859;28;19941;-59
2024/02/02 11:11:35;;;;;;;;;;;4.00;99.90;;;;;;5050951;28;19982;-58
2024/02/02 11:14:16;;;;;;;;;;;4.00;99.90;;;;;;5047164;28;20474;-57
2024/02/02 11:16:46;;;;;;;;;;;4.00;99.90;;;;;;5051679;28;19928;-61
2024/02/02 11:19:17;;;;;;;;;;;4.10;99.90;;;;;;5050235;28;19932;-58
2024/02/02 11:21:43;;;;;;;;;;;4.10;99.90;;;;;;5047386;28;19955;-62
2024/02/02 11:24:10;;;;;;;;;;;4.10;99.90;;;;;;5052932;28;20584;-60
2024/02/02 11:26:41;;;;;;;;;;;4.10;99.90;;;;;;5057159;28;19931;-61
2024/02/02 11:29:31;;;;;;;;;;;4.10;99.90;;;;;;5048858;28;19936;-60
2024/02/02 11:32:05;;;;;;;;;;;4.10;99.90;;;;;;5041937;28;20041;-58
2024/02/02 11:34:41;;;;;;;;;;;4.10;99.90;;;;;;5048959;28;19929;-59
2024/02/02 11:37:10;;;;;;;;;;;4.10;99.90;;;;;;5046083;28;20007;-57
2024/02/02 11:39:37;;;;;;;;;;;4.10;99.90;;;;;;5040169;28;19929;-64
2024/02/02 11:42:06;;;;;;;;;;;4.10;99.90;;;;;;5051448;28;20016;-58
2024/02/02 11:44:34;;;;;;;;;;;4.10;99.90;;;;;;5050754;28;19931;-60
2024/02/02 11:47:02;;;;;;;;;;;4.10;99.90;;;;;;5050658;28;20279;-58
2024/02/02 11:49:30;;;;;;;;;;;4.10;99.90;;;;;;5045930;28;19979;-58
2024/02/02 11:52:13;;;;;;;;;;;4.10;99.90;;;;;;5048838;28;19929;-58
2024/02/02 11:54:43;;;;;;;;;;;4.10;99.90;;;;;;5050342;28;20382;-60
2024/02/02 11:57:15;;;;;;;;;;;4.20;99.90;;;;;;5052361;28;19989;-59
2024/02/02 11:59:44;;;;;;;;;;;4.20;99.90;;;;;;5048520;28;19924;-57
2024/02/02 12:02:34;;;;;;;;;;;4.20;99.90;;;;;;5051038;28;19928;-60
2024/02/02 12:05:07;;;;;;;;;;;4.20;99.90;;;;;;5048582;28;19928;-58
2024/02/02 12:07:56;;;;;;;;;;;4.20;99.90;;;;;;5044144;28;20032;-63
2024/02/02 12:10:27;;;;;;;;;;;4.20;99.90;;;;;;5048253;28;19982;-58
2024/02/02 12:13:02;;;;;;;;;;;4.20;99.90;;;;;;5049855;28;19928;-57
2024/02/02 12:15:29;;;;;;;;;;;4.20;99.90;;;;;;5045539;28;19939;-58
2024/02/02 12:17:56;;;;;;;;;;;4.10;99.90;;;;;;5047732;28;19928;-57
2024/02/02 12:20:29;;;;;;;;;;;4.20;99.90;;;;;;5048963;28;19936;-57
2024/02/02 12:22:56;;;;;;;;;;;4.20;99.90;;;;;;5050789;28;20015;-60
2024/02/02 12:25:24;;;;;;;;;;;4.20;99.90;;;;;;5041844;28;21313;-58
2024/02/02 12:27:52;;;;;;;;;;;4.20;99.90;;;;;;5049341;28;19928;-58
2024/02/02 12:30:19;;;;;;;;;;;4.20;99.90;;;;;;5048250;28;20044;-59
2024/02/02 12:32:54;;;;;;;;;;;4.10;99.90;;;;;;5047422;28;19929;-63
2024/02/02 12:35:24;;;;;;;;;;;4.10;99.90;;;;;;5047929;28;19994;-60
2024/02/02 12:37:52;;;;;;;;;;;4.10;99.90;;;;;;5045137;28;19929;-58
2024/02/02 12:40:19;;;;;;;;;;;4.00;99.90;;;;;;5044908;28;19947;-61
2024/02/02 12:42:50;;;;;;;;;;;3.90;99.90;;;;;;5054603;28;19940;-60
2024/02/02 12:45:17;;;;;;;;;;;3.90;99.90;;;;;;5052909;28;20597;-59
2024/02/02 12:47:46;;;;;;;;;;;3.90;99.90;;;;;;5054041;28;19924;-60
2024/02/02 12:50:20;;;;;;;;;;;3.90;99.90;;;;;;5053698;28;19928;-59
2024/02/02 12:52:50;;;;;;;;;;;3.90;99.90;;;;;;5056282;28;20379;-61
2024/02/02 12:55:18;;;;;;;;;;;3.90;99.90;;;;;;5056781;28;19935;-62
2024/02/02 12:57:46;;;;;;;;;;;3.90;99.90;;;;;;5058584;28;20341;-58
2024/02/02 13:00:16;;;;;;;;;;;3.90;99.90;;;;;;5053248;28;19967;-58
2024/02/02 13:02:45;;;;;;;;;;;3.90;99.90;;;;;;5050207;28;19932;-58
2024/02/02 13:05:16;;;;;;;;;;;3.90;99.90;;;;;;5057769;28;19928;-58
2024/02/02 13:07:51;;;;;;;;;;;3.90;99.90;;;;;;5054462;28;19928;-63
2024/02/02 13:10:54;;;;;;;;;;;3.90;99.90;;;;;;5052170;28;20294;-58
2024/02/02 13:13:24;;;;;;;;;;;3.90;99.90;;;;;;5036855;28;19929;-59
2024/02/02 13:15:52;;;;;;;;;;;3.90;99.90;;;;;;5056239;28;19932;-57
2024/02/02 13:18:19;;;;;;;;;;;3.90;99.90;;;;;;5054873;28;19925;-60
2024/02/02 13:20:49;;;;;;;;;;;3.90;99.90;;;;;;5052329;28;19947;-62
2024/02/02 13:23:23;;;;;;;;;;;3.90;99.90;;;;;;5055673;28;19929;-61
2024/02/02 13:25:52;;;;;;;;;;;3.90;99.90;;;;;;5055786;28;20331;-60
2024/02/02 13:28:19;;;;;;;;;;;3.80;99.90;;;;;;5051637;28;19940;-60
2024/02/02 13:31:12;;;;;;;;;;;3.90;99.90;;;;;;5053497;28;20047;-59
2024/02/02 13:33:41;;;;;;;;;;;3.80;99.90;;;;;;5050368;28;19964;-60
2024/02/02 13:36:16;;;;;;;;;;;3.80;99.90;;;;;;5055139;28;20028;-58
2024/02/02 13:38:46;;;;;;;;;;;3.90;99.90;;;;;;5051982;28;20371;-60
2024/02/02 13:41:18;;;;;;;;;;;3.90;99.90;;;;;;5047549;28;19936;-58
2024/02/02 13:43:55;;;;;;;;;;;3.80;99.90;;;;;;5051050;28;19933;-61
2024/02/02 13:46:22;;;;;;;;;;;3.80;99.90;;;;;;5050069;28;19929;-58
2024/02/02 13:48:54;;;;;;;;;;;3.80;99.90;;;;;;5053574;28;19960;-60
2024/02/02 13:51:22;;;;;;;;;;;3.80;99.90;;;;;;5050402;28;19936;-60
2024/02/02 13:53:50;;;;;;;;;;;3.80;99.90;;;;;;5054858;28;20011;-61
2024/02/02 13:56:16;;;;;;;;;;;3.80;99.90;;;;;;5053983;28;19929;-64
2024/02/02 13:58:43;;;;;;;;;;;3.80;99.90;;;;;;5053710;28;20021;-60
2024/02/02 14:01:18;;;;;;;;;;;3.70;99.90;;;;;;5052014;28;19974;-58
2024/02/02 14:03:46;;;;;;;;;;;3.80;99.90;;;;;;5053069;28;19925;-58
2024/02/02 14:06:13;;;;;;;;;;;3.80;99.90;;;;;;5050257;28;19936;-61
2024/02/02 14:08:45;;;;;;;;;;;3.70;99.90;;;;;;5051177;28;19929;-59
2024/02/02 14:11:30;;;;;;;;;;;3.70;99.90;;;;;;5048667;28;19968;-61
2024/02/02 14:13:57;;;;;;;;;;;3.70;99.90;;;;;;5048061;28;20341;-58
2024/02/02 14:16:26;;;;;;;;;;;3.70;99.90;;;;;;5057169;28;19929;-58
2024/02/02 14:19:03;;;;;;;;;;;3.70;99.90;;;;;;5051046;28;19968;-61
2024/02/02 14:21:31;;;;;;;;;;;3.70;99.90;;;;;;5054009;28;19928;-58
2024/02/02 14:24:07;;;;;;;;;;;3.70;99.90;;;;;;5058947;28;19936;-59
2024/02/02 14:26:54;;;;;;;;;;;3.70;99.90;;;;;;5053800;28;19924;-64
2024/02/02 14:29:22;;;;;;;;;;;3.60;99.90;;;;;;5056083;28;19929;-59
2024/02/02 14:31:53;;;;;;;;;;;3.60;99.90;;;;;;5043530;28;20010;-57
2024/02/02 14:34:20;;;;;;;;;;;3.60;99.90;;;;;;5056262;28;19932;-58
2024/02/02 14:36:47;;;;;;;;;;;3.60;99.90;;;;;;5050964;28;19939;-59
2024/02/02 14:39:22;;;;;;;;;;;3.60;99.90;;;;;;5051527;28;20373;-60
2024/02/02 14:41:52;;;;;;;;;;;3.60;99.90;;;;;;5048780;28;19935;-60
2024/02/02 14:44:19;;;;;;;;;;;3.60;99.90;;;;;;5056866;28;20378;-58